sensor_id;sensor_type;location;lat;lon;timestamp;pressure;altitude;pressure_sealevel;temperature;humidity
18784;BME280;9520;50.954;6.968;2022-12-24T00:00:04;100183.97;;;17.99;45.44
18784;BME280;9520;50.954;6.968;2022-12-24T00:00:27;100182.16;;;18.00;45.54
18784;BME280;9520;50.954;6.968;2022-12-24T00:00:54;100185.59;;;18.02;45.36
18784;BME280;9520;50.954;6.968;2022-12-24T00:01:16;100189.00;;;18.05;45.53
18784;BME280;9520;50.954;6.968;2022-12-24T00:01:38;100174.78;;;18.05;45.32
18784;BME280;9520;50.954;6.968;2022-12-24T00:02:00;100187.41;;;18.01;45.06
18784;BME280;9520;50.954;6.968;2022-12-24T00:02:24;100194.06;;;18.10;45.06
18784;BME280;9520;50.954;6.968;2022-12-24T00:02:46;100196.66;;;18.11;45.17
18784;BME280;9520;50.954;6.968;2022-12-24T00:03:08;100181.59;;;18.10;45.31
18784;BME280;9520;50.954;6.968;2022-12-24T00:03:30;100191.66;;;18.21;45.11
18784;BME280;9520;50.954;6.968;2022-12-24T00:03:53;100195.06;;;18.25;45.13
18784;BME280;9520;50.954;6.968;2022-12-24T00:04:14;100196.75;;;18.10;45.30
18784;BME280;9520;50.954;6.968;2022-12-24T00:04:36;100193.72;;;18.00;45.07
18784;BME280;9520;50.954;6.968;2022-12-24T00:04:58;100201.84;;;17.97;45.52
18784;BME280;9520;50.954;6.968;2022-12-24T00:05:22;100197.31;;;17.99;45.54
18784;BME280;9520;50.954;6.968;2022-12-24T00:05:44;100195.09;;;18.07;45.33
18784;BME280;9520;50.954;6.968;2022-12-24T00:06:07;100191.41;;;18.10;45.30
18784;BME280;9520;50.954;6.968;2022-12-24T00:06:29;100193.72;;;18.16;45.20
18784;BME280;9520;50.954;6.968;2022-12-24T00:06:51;100204.41;;;18.16;45.19
18784;BME280;9520;50.954;6.968;2022-12-24T00:07:14;100207.88;;;18.18;45.45
18784;BME280;9520;50.954;6.968;2022-12-24T00:07:36;100194.50;;;18.18;45.12
18784;BME280;9520;50.954;6.968;2022-12-24T00:07:57;100212.88;;;18.24;45.15
18784;BME280;9520;50.954;6.968;2022-12-24T00:08:19;100191.88;;;18.01;44.99
18784;BME280;9520;50.954;6.968;2022-12-24T00:08:41;100200.44;;;18.07;45.28
18784;BME280;9520;50.954;6.968;2022-12-24T00:09:04;100200.50;;;18.06;44.98
18784;BME280;9520;50.954;6.968;2022-12-24T00:09:25;100203.97;;;18.08;45.27
18784;BME280;9520;50.954;6.968;2022-12-24T00:09:47;100200.09;;;18.13;45.17
18784;BME280;9520;50.954;6.968;2022-12-24T00:10:09;100200.72;;;18.19;45.09
18784;BME280;9520;50.954;6.968;2022-12-24T00:10:32;100204.16;;;18.21;45.00
18784;BME280;9520;50.954;6.968;2022-12-24T00:10:54;100209.06;;;18.12;45.01
18784;BME280;9520;50.954;6.968;2022-12-24T00:11:16;100189.59;;;18.10;45.27
18784;BME280;9520;50.954;6.968;2022-12-24T00:11:37;100198.19;;;18.16;45.04
18784;BME280;9520;50.954;6.968;2022-12-24T00:12:00;100205.00;;;18.21;45.00
18784;BME280;9520;50.954;6.968;2022-12-24T00:12:22;100206.50;;;18.27;45.25
18784;BME280;9520;50.954;6.968;2022-12-24T00:12:44;100201.94;;;18.29;45.19
18784;BME280;9520;50.954;6.968;2022-12-24T00:13:07;100211.84;;;18.27;44.97
18784;BME280;9520;50.954;6.968;2022-12-24T00:13:28;100202.53;;;18.18;45.09
18784;BME280;9520;50.954;6.968;2022-12-24T00:13:51;100207.88;;;18.18;44.97
18784;BME280;9520;50.954;6.968;2022-12-24T00:14:13;100186.53;;;18.01;45.02
18784;BME280;9520;50.954;6.968;2022-12-24T00:14:34;100200.69;;;18.03;45.15
18784;BME280;9520;50.954;6.968;2022-12-24T00:14:56;100201.47;;;18.05;45.22
18784;BME280;9520;50.954;6.968;2022-12-24T00:15:19;100174.66;;;17.91;44.93
18784;BME280;9520;50.954;6.968;2022-12-24T00:15:40;100205.63;;;18.10;44.97
18784;BME280;9520;50.954;6.968;2022-12-24T00:16:04;100214.31;;;18.14;44.97
18784;BME280;9520;50.954;6.968;2022-12-24T00:16:26;100211.78;;;18.11;45.06
18784;BME280;9520;50.954;6.968;2022-12-24T00:16:49;100211.09;;;18.07;45.23
18784;BME280;9520;50.954;6.968;2022-12-24T00:17:11;100203.03;;;18.09;44.87
18784;BME280;9520;50.954;6.968;2022-12-24T00:17:34;100197.81;;;17.90;45.36
18784;BME280;9520;50.954;6.968;2022-12-24T00:17:56;100211.28;;;18.04;45.16
18784;BME280;9520;50.954;6.968;2022-12-24T00:18:19;100200.50;;;18.06;45.18
18784;BME280;9520;50.954;6.968;2022-12-24T00:18:41;100219.19;;;18.06;45.04
18784;BME280;9520;50.954;6.968;2022-12-24T00:19:07;100217.88;;;17.97;45.20
18784;BME280;9520;50.954;6.968;2022-12-24T00:19:29;100215.06;;;18.00;45.10
18784;BME280;9520;50.954;6.968;2022-12-24T00:19:51;100216.63;;;17.87;45.61
18784;BME280;9520;50.954;6.968;2022-12-24T00:20:13;100226.53;;;17.85;45.62
18784;BME280;9520;50.954;6.968;2022-12-24T00:20:34;100218.53;;;17.85;45.56
18784;BME280;9520;50.954;6.968;2022-12-24T00:20:56;100214.50;;;17.94;45.47
18784;BME280;9520;50.954;6.968;2022-12-24T00:21:19;100217.00;;;17.97;45.45
18784;BME280;9520;50.954;6.968;2022-12-24T00:21:40;100219.59;;;17.98;45.85
18784;BME280;9520;50.954;6.968;2022-12-24T00:22:02;100227.44;;;18.01;45.56
18784;BME280;9520;50.954;6.968;2022-12-24T00:22:24;100218.50;;;18.02;45.50
18784;BME280;9520;50.954;6.968;2022-12-24T00:22:46;100222.28;;;17.98;45.33
18784;BME280;9520;50.954;6.968;2022-12-24T00:23:09;100215.19;;;17.97;45.44
18784;BME280;9520;50.954;6.968;2022-12-24T00:23:30;100227.84;;;17.94;45.60
18784;BME280;9520;50.954;6.968;2022-12-24T00:23:52;100220.41;;;17.83;45.47
18784;BME280;9520;50.954;6.968;2022-12-24T00:24:14;100219.22;;;17.89;45.73
18784;BME280;9520;50.954;6.968;2022-12-24T00:24:36;100218.97;;;17.93;45.48
18784;BME280;9520;50.954;6.968;2022-12-24T00:24:58;100216.25;;;17.95;45.73
18784;BME280;9520;50.954;6.968;2022-12-24T00:25:19;100221.16;;;18.02;45.43
18784;BME280;9520;50.954;6.968;2022-12-24T00:25:41;100218.50;;;18.02;45.42
18784;BME280;9520;50.954;6.968;2022-12-24T00:26:04;100217.22;;;18.09;45.24
18784;BME280;9520;50.954;6.968;2022-12-24T00:26:26;100220.53;;;18.15;45.04
18784;BME280;9520;50.954;6.968;2022-12-24T00:26:47;100216.13;;;18.13;45.33
18784;BME280;9520;50.954;6.968;2022-12-24T00:27:09;100213.09;;;17.87;45.62
18784;BME280;9520;50.954;6.968;2022-12-24T00:27:31;100226.53;;;17.85;45.54
18784;BME280;9520;50.954;6.968;2022-12-24T00:27:53;100227.41;;;17.86;45.47
18784;BME280;9520;50.954;6.968;2022-12-24T00:28:21;100224.16;;;17.96;45.32
18784;BME280;9520;50.954;6.968;2022-12-24T00:28:42;100230.13;;;17.84;45.71
18784;BME280;9520;50.954;6.968;2022-12-24T00:29:04;100231.06;;;17.83;45.74
18784;BME280;9520;50.954;6.968;2022-12-24T00:29:26;100229.09;;;17.87;45.69
18784;BME280;9520;50.954;6.968;2022-12-24T00:29:48;100219.06;;;17.92;45.55
18784;BME280;9520;50.954;6.968;2022-12-24T00:30:10;100225.13;;;17.95;45.80
18784;BME280;9520;50.954;6.968;2022-12-24T00:30:32;100218.13;;;17.93;45.57
18784;BME280;9520;50.954;6.968;2022-12-24T00:30:54;100222.44;;;17.95;45.29
18784;BME280;9520;50.954;6.968;2022-12-24T00:31:17;100214.25;;;17.98;45.25
18784;BME280;9520;50.954;6.968;2022-12-24T00:31:39;100221.94;;;18.04;45.29
18784;BME280;9520;50.954;6.968;2022-12-24T00:32:01;100213.00;;;18.05;45.24
18784;BME280;9520;50.954;6.968;2022-12-24T00:32:23;100215.44;;;18.10;45.07
18784;BME280;9520;50.954;6.968;2022-12-24T00:32:47;100231.19;;;18.15;45.36
18784;BME280;9520;50.954;6.968;2022-12-24T00:33:09;100218.34;;;18.05;45.21
18784;BME280;9520;50.954;6.968;2022-12-24T00:33:31;100207.38;;;17.94;45.06
18784;BME280;9520;50.954;6.968;2022-12-24T00:33:53;100211.84;;;17.94;45.31
18784;BME280;9520;50.954;6.968;2022-12-24T00:34:15;100218.03;;;17.94;45.36
18784;BME280;9520;50.954;6.968;2022-12-24T00:34:37;100216.38;;;17.92;45.54
18784;BME280;9520;50.954;6.968;2022-12-24T00:34:59;100219.53;;;18.00;45.48
18784;BME280;9520;50.954;6.968;2022-12-24T00:35:20;100215.19;;;17.97;45.52
18784;BME280;9520;50.954;6.968;2022-12-24T00:35:42;100213.16;;;18.02;45.25
18784;BME280;9520;50.954;6.968;2022-12-24T00:36:06;100212.91;;;18.07;45.36
18784;BME280;9520;50.954;6.968;2022-12-24T00:36:28;100218.97;;;18.10;45.27
18784;BME280;9520;50.954;6.968;2022-12-24T00:36:49;100217.13;;;18.11;45.23
18784;BME280;9520;50.954;6.968;2022-12-24T00:37:11;100213.53;;;18.12;45.15
18784;BME280;9520;50.954;6.968;2022-12-24T00:37:33;100188.69;;;17.94;45.47
18784;BME280;9520;50.954;6.968;2022-12-24T00:37:55;100216.19;;;18.12;45.17
18784;BME280;9520;50.954;6.968;2022-12-24T00:38:17;100217.94;;;18.13;45.22
18784;BME280;9520;50.954;6.968;2022-12-24T00:38:39;100218.59;;;18.17;44.96
18784;BME280;9520;50.954;6.968;2022-12-24T00:39:00;100214.94;;;18.19;45.03
18784;BME280;9520;50.954;6.968;2022-12-24T00:39:23;100216.56;;;18.22;45.25
18784;BME280;9520;50.954;6.968;2022-12-24T00:39:45;100212.69;;;18.27;45.11
18784;BME280;9520;50.954;6.968;2022-12-24T00:40:08;100213.38;;;18.31;44.88
18784;BME280;9520;50.954;6.968;2022-12-24T00:40:30;100224.94;;;18.31;44.69
18784;BME280;9520;50.954;6.968;2022-12-24T00:40:57;100210.72;;;18.31;44.92
18784;BME280;9520;50.954;6.968;2022-12-24T00:41:20;100214.69;;;18.24;44.85
18784;BME280;9520;50.954;6.968;2022-12-24T00:41:45;100222.69;;;18.24;45.25
18784;BME280;9520;50.954;6.968;2022-12-24T00:42:07;100215.63;;;18.23;45.53
18784;BME280;9520;50.954;6.968;2022-12-24T00:42:29;100192.09;;;18.13;45.36
18784;BME280;9520;50.954;6.968;2022-12-24T00:42:51;100215.28;;;18.29;45.13
18784;BME280;9520;50.954;6.968;2022-12-24T00:43:13;100210.72;;;18.31;45.25
18784;BME280;9520;50.954;6.968;2022-12-24T00:43:35;100213.31;;;18.32;45.12
18784;BME280;9520;50.954;6.968;2022-12-24T00:43:58;100214.63;;;18.25;45.02
18784;BME280;9520;50.954;6.968;2022-12-24T00:44:22;100218.91;;;18.28;45.04
18784;BME280;9520;50.954;6.968;2022-12-24T00:44:43;100221.31;;;18.32;44.89
18784;BME280;9520;50.954;6.968;2022-12-24T00:45:06;100213.25;;;18.34;45.25
18784;BME280;9520;50.954;6.968;2022-12-24T00:45:28;100217.66;;;18.35;45.33
18784;BME280;9520;50.954;6.968;2022-12-24T00:45:49;100214.00;;;18.36;45.17
18784;BME280;9520;50.954;6.968;2022-12-24T00:46:12;100207.03;;;18.33;45.14
18784;BME280;9520;50.954;6.968;2022-12-24T00:46:35;100213.25;;;18.34;45.06
18784;BME280;9520;50.954;6.968;2022-12-24T00:46:57;100213.00;;;18.38;45.28
18784;BME280;9520;50.954;6.968;2022-12-24T00:47:19;100211.19;;;18.39;45.43
18784;BME280;9520;50.954;6.968;2022-12-24T00:47:41;100222.19;;;18.33;45.39
18784;BME280;9520;50.954;6.968;2022-12-24T00:48:05;100214.00;;;18.20;45.67
18784;BME280;9520;50.954;6.968;2022-12-24T00:48:26;100213.44;;;18.13;45.73
18784;BME280;9520;50.954;6.968;2022-12-24T00:48:48;100206.31;;;18.14;46.02
18784;BME280;9520;50.954;6.968;2022-12-24T00:49:11;100214.22;;;18.16;45.80
18784;BME280;9520;50.954;6.968;2022-12-24T00:49:34;100216.88;;;18.16;45.94
18784;BME280;9520;50.954;6.968;2022-12-24T00:49:55;100211.41;;;18.19;45.80
18784;BME280;9520;50.954;6.968;2022-12-24T00:50:17;100214.81;;;18.21;45.99
18784;BME280;9520;50.954;6.968;2022-12-24T00:50:39;100214.75;;;18.22;46.02
18784;BME280;9520;50.954;6.968;2022-12-24T00:51:00;100217.59;;;18.19;46.01
18784;BME280;9520;50.954;6.968;2022-12-24T00:51:24;100215.31;;;18.11;46.40
18784;BME280;9520;50.954;6.968;2022-12-24T00:51:45;100224.13;;;18.13;46.14
18784;BME280;9520;50.954;6.968;2022-12-24T00:52:07;100222.16;;;18.17;46.19
18784;BME280;9520;50.954;6.968;2022-12-24T00:52:29;100221.91;;;18.22;46.05
18784;BME280;9520;50.954;6.968;2022-12-24T00:52:50;100221.81;;;18.23;46.08
18784;BME280;9520;50.954;6.968;2022-12-24T00:53:13;100232.25;;;18.28;46.20
18784;BME280;9520;50.954;6.968;2022-12-24T00:53:35;100229.34;;;18.32;46.10
18784;BME280;9520;50.954;6.968;2022-12-24T00:53:56;100224.06;;;18.31;45.87
18784;BME280;9520;50.954;6.968;2022-12-24T00:54:18;100223.91;;;18.34;45.93
18784;BME280;9520;50.954;6.968;2022-12-24T00:54:41;100222.88;;;18.36;45.99
18784;BME280;9520;50.954;6.968;2022-12-24T00:55:03;100225.66;;;18.35;46.07
18784;BME280;9520;50.954;6.968;2022-12-24T00:55:24;100226.41;;;18.37;46.13
18784;BME280;9520;50.954;6.968;2022-12-24T00:55:46;100225.41;;;18.39;45.89
18784;BME280;9520;50.954;6.968;2022-12-24T00:56:09;100228.94;;;18.40;45.94
18784;BME280;9520;50.954;6.968;2022-12-24T00:56:31;100217.53;;;18.36;45.88
18784;BME280;9520;50.954;6.968;2022-12-24T00:56:53;100223.41;;;18.43;45.92
18784;BME280;9520;50.954;6.968;2022-12-24T00:57:15;100234.88;;;18.45;45.61
18784;BME280;9520;50.954;6.968;2022-12-24T00:57:38;100202.56;;;18.34;45.61
18784;BME280;9520;50.954;6.968;2022-12-24T00:58:00;100232.28;;;18.43;45.66
18784;BME280;9520;50.954;6.968;2022-12-24T00:58:21;100227.97;;;18.41;45.50
18784;BME280;9520;50.954;6.968;2022-12-24T00:58:43;100232.88;;;18.33;45.66
18784;BME280;9520;50.954;6.968;2022-12-24T00:59:05;100232.06;;;18.31;45.55
18784;BME280;9520;50.954;6.968;2022-12-24T00:59:28;100233.38;;;18.24;45.96
18784;BME280;9520;50.954;6.968;2022-12-24T00:59:49;100220.53;;;18.15;45.89
18784;BME280;9520;50.954;6.968;2022-12-24T01:00:11;100226.47;;;18.20;46.06
18784;BME280;9520;50.954;6.968;2022-12-24T01:00:33;100231.63;;;18.23;46.04
18784;BME280;9520;50.954;6.968;2022-12-24T01:00:55;100230.22;;;18.16;45.71
18784;BME280;9520;50.954;6.968;2022-12-24T01:01:18;100224.88;;;18.16;46.06
18784;BME280;9520;50.954;6.968;2022-12-24T01:01:40;100228.16;;;18.21;46.09
18784;BME280;9520;50.954;6.968;2022-12-24T01:02:02;100234.25;;;18.24;45.97
18784;BME280;9520;50.954;6.968;2022-12-24T01:02:24;100234.00;;;18.29;45.97
18784;BME280;9520;50.954;6.968;2022-12-24T01:02:46;100223.22;;;18.30;45.91
18784;BME280;9520;50.954;6.968;2022-12-24T01:03:10;100216.28;;;18.10;45.89
18784;BME280;9520;50.954;6.968;2022-12-24T01:03:32;100218.34;;;18.05;46.00
18784;BME280;9520;50.954;6.968;2022-12-24T01:03:57;100229.72;;;18.09;46.04
18784;BME280;9520;50.954;6.968;2022-12-24T01:04:34;100237.06;;;18.21;45.93
18784;BME280;9520;50.954;6.968;2022-12-24T01:05:14;100234.75;;;18.31;45.75
18784;BME280;9520;50.954;6.968;2022-12-24T01:05:35;100241.69;;;18.35;45.82
18784;BME280;9520;50.954;6.968;2022-12-24T01:05:58;100233.50;;;18.21;46.14
18784;BME280;9520;50.954;6.968;2022-12-24T01:06:21;100234.25;;;18.07;46.34
18784;BME280;9520;50.954;6.968;2022-12-24T01:06:43;100226.19;;;18.08;46.31
18784;BME280;9520;50.954;6.968;2022-12-24T01:07:05;100225.94;;;18.13;46.12
18784;BME280;9520;50.954;6.968;2022-12-24T01:07:26;100230.94;;;18.19;46.18
18784;BME280;9520;50.954;6.968;2022-12-24T01:07:48;100239.72;;;18.21;46.13
18784;BME280;9520;50.954;6.968;2022-12-24T01:08:10;100235.66;;;18.14;46.05
18784;BME280;9520;50.954;6.968;2022-12-24T01:08:33;100232.69;;;18.20;45.97
18784;BME280;9520;50.954;6.968;2022-12-24T01:08:55;100242.13;;;18.26;46.02
18784;BME280;9520;50.954;6.968;2022-12-24T01:09:17;100238.38;;;18.30;45.78
18784;BME280;9520;50.954;6.968;2022-12-24T01:09:38;100242.69;;;18.32;46.04
18784;BME280;9520;50.954;6.968;2022-12-24T01:10:00;100234.06;;;18.27;45.76
18784;BME280;9520;50.954;6.968;2022-12-24T01:10:23;100242.00;;;18.29;45.84
18784;BME280;9520;50.954;6.968;2022-12-24T01:10:44;100241.94;;;18.30;45.84
18784;BME280;9520;50.954;6.968;2022-12-24T01:11:07;100237.41;;;18.31;46.11
18784;BME280;9520;50.954;6.968;2022-12-24T01:11:31;100242.59;;;18.34;46.06
18784;BME280;9520;50.954;6.968;2022-12-24T01:11:54;100240.69;;;18.36;46.04
18784;BME280;9520;50.954;6.968;2022-12-24T01:12:16;100233.56;;;18.36;46.09
18784;BME280;9520;50.954;6.968;2022-12-24T01:12:37;100240.44;;;18.40;46.10
18784;BME280;9520;50.954;6.968;2022-12-24T01:13:00;100245.78;;;18.40;45.91
18784;BME280;9520;50.954;6.968;2022-12-24T01:13:23;100231.00;;;18.35;45.97
18784;BME280;9520;50.954;6.968;2022-12-24T01:13:45;100229.25;;;18.34;45.82
18784;BME280;9520;50.954;6.968;2022-12-24T01:14:07;100241.31;;;18.41;45.88
18784;BME280;9520;50.954;6.968;2022-12-24T01:14:28;100244.84;;;18.41;45.79
18784;BME280;9520;50.954;6.968;2022-12-24T01:14:50;100241.16;;;18.44;46.17
18784;BME280;9520;50.954;6.968;2022-12-24T01:15:13;100244.78;;;18.43;45.98
18784;BME280;9520;50.954;6.968;2022-12-24T01:15:36;100224.78;;;18.34;46.09
18784;BME280;9520;50.954;6.968;2022-12-24T01:15:57;100235.38;;;18.36;45.94
18784;BME280;9520;50.954;6.968;2022-12-24T01:16:19;100239.00;;;18.35;45.91
18784;BME280;9520;50.954;6.968;2022-12-24T01:16:42;100241.50;;;18.38;45.84
18784;BME280;9520;50.954;6.968;2022-12-24T01:17:42;100251.75;;;18.45;46.04
18784;BME280;9520;50.954;6.968;2022-12-24T01:18:03;100255.22;;;18.47;45.96
18784;BME280;9520;50.954;6.968;2022-12-24T01:18:27;100251.53;;;18.50;45.95
18784;BME280;9520;50.954;6.968;2022-12-24T01:18:49;100253.31;;;18.49;45.76
18784;BME280;9520;50.954;6.968;2022-12-24T01:19:11;100254.94;;;18.52;45.84
18784;BME280;9520;50.954;6.968;2022-12-24T01:19:33;100251.59;;;18.48;45.77
18784;BME280;9520;50.954;6.968;2022-12-24T01:19:54;100256.69;;;18.53;45.83
18784;BME280;9520;50.954;6.968;2022-12-24T01:20:17;100257.47;;;18.55;46.08
18784;BME280;9520;50.954;6.968;2022-12-24T01:20:39;100252.25;;;18.53;46.01
18784;BME280;9520;50.954;6.968;2022-12-24T01:21:01;100260.28;;;18.52;46.02
18784;BME280;9520;50.954;6.968;2022-12-24T01:21:23;100256.06;;;18.48;45.68
18784;BME280;9520;50.954;6.968;2022-12-24T01:21:45;100265.09;;;18.45;45.89
18784;BME280;9520;50.954;6.968;2022-12-24T01:22:08;100266.47;;;18.37;46.01
18784;BME280;9520;50.954;6.968;2022-12-24T01:22:29;100245.91;;;18.39;45.98
18784;BME280;9520;50.954;6.968;2022-12-24T01:22:51;100251.50;;;18.34;45.87
18784;BME280;9520;50.954;6.968;2022-12-24T01:23:13;100256.91;;;18.33;46.00
18784;BME280;9520;50.954;6.968;2022-12-24T01:23:35;100262.50;;;18.28;45.96
18784;BME280;9520;50.954;6.968;2022-12-24T01:23:57;100254.66;;;18.25;45.98
18784;BME280;9520;50.954;6.968;2022-12-24T01:24:19;100257.06;;;18.30;45.87
18784;BME280;9520;50.954;6.968;2022-12-24T01:24:41;100256.28;;;18.28;45.81
18784;BME280;9520;50.954;6.968;2022-12-24T01:25:04;100256.97;;;18.31;45.89
18784;BME280;9520;50.954;6.968;2022-12-24T01:25:26;100263.88;;;18.35;46.08
18784;BME280;9520;50.954;6.968;2022-12-24T01:25:48;100261.31;;;18.34;46.28
18784;BME280;9520;50.954;6.968;2022-12-24T01:26:10;100271.97;;;18.34;46.09
18784;BME280;9520;50.954;6.968;2022-12-24T01:26:32;100264.84;;;18.34;46.13
18784;BME280;9520;50.954;6.968;2022-12-24T01:26:54;100255.59;;;18.24;46.08
18784;BME280;9520;50.954;6.968;2022-12-24T01:27:15;100262.50;;;18.28;46.31
18784;BME280;9520;50.954;6.968;2022-12-24T01:27:38;100258.69;;;18.32;46.15
18784;BME280;9520;50.954;6.968;2022-12-24T01:28:00;100259.19;;;18.23;45.96
18784;BME280;9520;50.954;6.968;2022-12-24T01:28:21;100268.69;;;18.29;45.89
18784;BME280;9520;50.954;6.968;2022-12-24T01:28:43;100271.13;;;18.33;45.65
18784;BME280;9520;50.954;6.968;2022-12-24T01:29:05;100269.13;;;18.37;45.50
18784;BME280;9520;50.954;6.968;2022-12-24T01:29:27;100271.03;;;18.35;45.72
18784;BME280;9520;50.954;6.968;2022-12-24T01:29:49;100270.06;;;18.36;45.86
18784;BME280;9520;50.954;6.968;2022-12-24T01:30:12;100261.06;;;18.38;45.82
18784;BME280;9520;50.954;6.968;2022-12-24T01:30:34;100272.50;;;18.40;45.60
18784;BME280;9520;50.954;6.968;2022-12-24T01:30:57;100279.88;;;18.35;45.59
18784;BME280;9520;50.954;6.968;2022-12-24T01:31:19;100269.31;;;18.34;45.44
18784;BME280;9520;50.954;6.968;2022-12-24T01:31:41;100261.91;;;18.39;45.52
18784;BME280;9520;50.954;6.968;2022-12-24T01:32:03;100276.81;;;18.43;45.46
18784;BME280;9520;50.954;6.968;2022-12-24T01:32:25;100273.97;;;18.46;45.49
18784;BME280;9520;50.954;6.968;2022-12-24T01:32:47;100277.38;;;18.49;45.25
18784;BME280;9520;50.954;6.968;2022-12-24T01:33:09;100277.38;;;18.49;45.38
18784;BME280;9520;50.954;6.968;2022-12-24T01:33:32;100277.25;;;18.51;45.22
18784;BME280;9520;50.954;6.968;2022-12-24T01:33:54;100287.00;;;18.52;45.52
18784;BME280;9520;50.954;6.968;2022-12-24T01:34:16;100274.53;;;18.35;45.58
18784;BME280;9520;50.954;6.968;2022-12-24T01:34:38;100263.66;;;18.40;45.40
18784;BME280;9520;50.954;6.968;2022-12-24T01:34:59;100264.41;;;18.42;45.45
18784;BME280;9520;50.954;6.968;2022-12-24T01:35:21;100277.06;;;18.38;45.39
18784;BME280;9520;50.954;6.968;2022-12-24T01:35:43;100273.97;;;18.46;45.29
18784;BME280;9520;50.954;6.968;2022-12-24T01:36:06;100267.88;;;18.44;45.21
18784;BME280;9520;50.954;6.968;2022-12-24T01:36:28;100265.28;;;18.42;45.35
18784;BME280;9520;50.954;6.968;2022-12-24T01:36:49;100262.53;;;18.44;45.23
18784;BME280;9520;50.954;6.968;2022-12-24T01:37:11;100259.66;;;18.31;45.61
18784;BME280;9520;50.954;6.968;2022-12-24T01:37:33;100267.84;;;18.28;45.80
18784;BME280;9520;50.954;6.968;2022-12-24T01:37:55;100267.75;;;18.30;45.42
18784;BME280;9520;50.954;6.968;2022-12-24T01:38:17;100264.63;;;18.22;45.74
18784;BME280;9520;50.954;6.968;2022-12-24T01:38:39;100277.09;;;18.21;45.78
18784;BME280;9520;50.954;6.968;2022-12-24T01:39:01;100279.00;;;18.19;45.89
18784;BME280;9520;50.954;6.968;2022-12-24T01:39:23;100274.84;;;18.13;45.91
18784;BME280;9520;50.954;6.968;2022-12-24T01:39:45;100276.56;;;18.15;46.05
18784;BME280;9520;50.954;6.968;2022-12-24T01:40:09;100271.47;;;18.10;45.76
18784;BME280;9520;50.954;6.968;2022-12-24T01:40:52;100273.19;;;18.11;46.17
18784;BME280;9520;50.954;6.968;2022-12-24T01:41:33;100286.13;;;18.19;46.17
18784;BME280;9520;50.954;6.968;2022-12-24T01:42:18;100287.09;;;18.18;46.03
18784;BME280;9520;50.954;6.968;2022-12-24T01:42:59;100285.97;;;18.22;46.15
18784;BME280;9520;50.954;6.968;2022-12-24T01:43:39;100276.84;;;18.26;46.08
18784;BME280;9520;50.954;6.968;2022-12-24T01:44:22;100277.66;;;18.28;46.15
18784;BME280;9520;50.954;6.968;2022-12-24T01:44:55;100277.81;;;18.25;45.93
18784;BME280;9520;50.954;6.968;2022-12-24T01:45:48;100274.34;;;18.23;45.77
18784;BME280;9520;50.954;6.968;2022-12-24T01:46:13;100271.00;;;18.19;45.91
18784;BME280;9520;50.954;6.968;2022-12-24T01:46:37;100265.84;;;17.99;46.07
18784;BME280;9520;50.954;6.968;2022-12-24T01:47:05;100276.88;;;18.08;45.83
18784;BME280;9520;50.954;6.968;2022-12-24T01:47:28;100277.06;;;18.05;46.28
18784;BME280;9520;50.954;6.968;2022-12-24T01:47:50;100272.56;;;18.06;46.03
18784;BME280;9520;50.954;6.968;2022-12-24T01:48:21;100277.75;;;18.09;46.26
18784;BME280;9520;50.954;6.968;2022-12-24T01:48:48;100286.25;;;18.00;46.27
18784;BME280;9520;50.954;6.968;2022-12-24T01:49:13;100274.22;;;17.91;46.41
18784;BME280;9520;50.954;6.968;2022-12-24T01:49:37;100280.28;;;17.95;46.38
18784;BME280;9520;50.954;6.968;2022-12-24T01:50:03;100273.78;;;18.00;46.32
18784;BME280;9520;50.954;6.968;2022-12-24T01:50:34;100284.09;;;18.06;46.39
18784;BME280;9520;50.954;6.968;2022-12-24T01:51:00;100269.13;;;18.04;45.95
18784;BME280;9520;50.954;6.968;2022-12-24T01:51:27;100269.00;;;17.90;46.32
18784;BME280;9520;50.954;6.968;2022-12-24T01:51:55;100283.50;;;17.84;46.29
18784;BME280;9520;50.954;6.968;2022-12-24T01:52:20;100283.44;;;17.86;46.27
18784;BME280;9520;50.954;6.968;2022-12-24T01:52:43;100276.50;;;17.82;46.62
18784;BME280;9520;50.954;6.968;2022-12-24T01:53:05;100270.53;;;17.77;46.58
18784;BME280;9520;50.954;6.968;2022-12-24T01:53:28;100274.41;;;17.71;46.73
18784;BME280;9520;50.954;6.968;2022-12-24T01:53:56;100282.53;;;17.68;46.70
18784;BME280;9520;50.954;6.968;2022-12-24T01:54:22;100275.38;;;17.51;46.90
18784;BME280;9520;50.954;6.968;2022-12-24T01:54:48;100282.34;;;17.54;47.16
18784;BME280;9520;50.954;6.968;2022-12-24T01:55:13;100267.72;;;17.62;46.92
18784;BME280;9520;50.954;6.968;2022-12-24T01:55:36;100276.44;;;17.66;46.88
18784;BME280;9520;50.954;6.968;2022-12-24T01:55:58;100279.94;;;17.66;47.10
18784;BME280;9520;50.954;6.968;2022-12-24T01:56:20;100276.22;;;17.71;47.18
18784;BME280;9520;50.954;6.968;2022-12-24T01:56:44;100275.00;;;17.76;46.71
18784;BME280;9520;50.954;6.968;2022-12-24T01:57:14;100277.31;;;17.84;46.81
18784;BME280;9520;50.954;6.968;2022-12-24T01:57:41;100263.41;;;17.77;46.46
18784;BME280;9520;50.954;6.968;2022-12-24T01:58:04;100280.50;;;17.73;46.61
18784;BME280;9520;50.954;6.968;2022-12-24T01:58:27;100268.09;;;17.72;46.64
18784;BME280;9520;50.954;6.968;2022-12-24T01:58:54;100275.34;;;17.70;46.75
18784;BME280;9520;50.954;6.968;2022-12-24T01:59:17;100283.34;;;17.70;46.74
18784;BME280;9520;50.954;6.968;2022-12-24T01:59:41;100279.56;;;17.74;46.74
18784;BME280;9520;50.954;6.968;2022-12-24T02:00:07;100277.47;;;17.81;46.71
18784;BME280;9520;50.954;6.968;2022-12-24T02:00:30;100275.19;;;17.73;46.97
18784;BME280;9520;50.954;6.968;2022-12-24T02:00:53;100277.84;;;17.73;46.92
18784;BME280;9520;50.954;6.968;2022-12-24T02:01:15;100283.81;;;17.78;46.65
18784;BME280;9520;50.954;6.968;2022-12-24T02:01:38;100279.81;;;17.69;46.71
18784;BME280;9520;50.954;6.968;2022-12-24T02:02:00;100286.16;;;17.67;46.68
18784;BME280;9520;50.954;6.968;2022-12-24T02:02:24;100287.13;;;17.66;46.82
18784;BME280;9520;50.954;6.968;2022-12-24T02:02:49;100277.22;;;17.68;46.62
18784;BME280;9520;50.954;6.968;2022-12-24T02:03:13;100283.81;;;17.78;46.42